Portaferry, United Kingdom
Current Conditions -  °F | °C
As of 8:50 AM on Sunday 26 Oct 2014 (Local Time) from EGAC Reporting Station
Broken Clouds Broken Clouds  
Wind Chill: 54°   Ceiling: 3400
Heat Index: 54°   Visibility: 6mi
Dew Point: 46°   Wind: 22mph
Humidity: 77%   Direction: 200°SSW
Pressure: 29.74"   Gusts: NA
Location:  54.38°N, 5.55°W
Report Text: EGAC 260750Z 20019KT 9999 FEW014 SCT023 BKN034 12/08 Q1007
Loading
Personal Weather Stations






























Interactive Weather Map
Tropical Storm Tracking
New forecast layout! Learn more

10-Day Weather Forecast

Advertisements
Track Severe Weather on mobile